Amherst, MA (01004)

2:32 AM EST on December 28, 2014 (GMT -0500)
Computer Science Bldg - University of Massachusetts | Change Station
CLOSE
Current Station
Personal Weather Station
Location: Amherst, MA
Elevation: 249 ft
Nearby Weather Stations

Elev 249 ft 42.40 °N, 72.50 °W | Updated 44 seconds ago

Overcast
Overcast
47.1 °F
Feels Like 44 °F
N
6.0
Wind Variable Wind from SSW
Gusts 10.0 mph

Today
High -- | Low -- °F
--% Chance of Precip.
Yesterday
High -- | Low -- °F
Precip. -- in
7:18 AM 4:24 PM
Waxing Crescent, 45% visible
Pressure 29.96 in
Visibility 10.0 miles
Clouds Scattered Clouds 10000 ft
Scattered Clouds 14000 ft
Windchill 44 °F
Dew Point 35 °F
Humidity 62%
Rainfall 0.00 in
Snow Depth Not available.
UV 0 out of 12
Pollen .10 out of 12
Air Quality Not available.
Flu Activity Not available.
METAR KCEF 280658Z AUTO 21004KT 10SM SCT100 SCT140 07/01 A2994 RMK AO2 SLP146 T00690007

More Conditions Fewer Conditions

Pressure 29.96 in
Visibility 10.0 miles
Clouds Scattered Clouds 10000 ft
Scattered Clouds 14000 ft
Windchill 44 °F
Dew Point 35 °F
Humidity 62%
Rainfall 0.00 in
Snow Depth Not available.
UV 0 out of 12
Pollen .10 out of 12
Air Quality Not available.
Flu Activity Not available.
METAR KCEF 280658Z AUTO 21004KT 10SM SCT100 SCT140 07/01 A2994 RMK AO2 SLP146 T00690007

More Conditions Fewer Conditions

10-Day Weather Forecast

Almanac

Astronomy

Dec. 28, 2014 Rise Set
Actual Time
Civil Twilight
Nautical Twilight
Astronomical Twilight
Moon
Length of Visible Light
Length of Day
Tomorrow will be .
, % of the Moon is Illuminated

Today's Extremes

State Highs State Lows

Community

WunderPhotos

Upload Photos

1,781,210 photos uploaded!

WunderBlogs® & News

Nearby

Air Quality

  Air Quality AQ Index Pollutant
Not available.

Snow Depth

Station Depth Elevation

Earthquake Activity

City Distance Mag. Time & Date
Minimum magnitude displayed is 2.5.

Coastal Water Temperatures

Place Temperature

Nearby Weather Stations